createdAt,value
2023-10-28T00:02:29.199Z,94269.78
2023-10-28T00:07:30.778Z,94273.72
2023-10-28T00:12:32.310Z,94273.38
2023-10-28T00:17:33.889Z,94292.50
2023-10-28T00:22:35.590Z,94285.94
2023-10-28T00:27:37.172Z,94287.66
2023-10-28T00:32:39.053Z,94305.28
2023-10-28T00:37:40.594Z,94312.97
2023-10-28T00:42:42.762Z,94316.22
2023-10-28T00:47:50.107Z,94337.06
2023-10-28T00:52:54.905Z,94332.28
2023-10-28T00:57:56.808Z,94344.50
2023-10-28T01:02:58.587Z,94345.00
2023-10-28T01:08:00.270Z,94341.91
2023-10-28T01:13:02.443Z,94341.56
2023-10-28T01:18:04.409Z,94338.00
2023-10-28T01:23:06.552Z,94338.31
2023-10-28T01:28:09.320Z,94344.59
2023-10-28T01:33:11.101Z,94344.59
2023-10-28T01:38:12.878Z,94341.91
2023-10-28T01:43:15.544Z,94343.53
2023-10-28T01:48:17.116Z,94342.69
2023-10-28T01:53:18.989Z,94335.28
2023-10-28T01:58:20.654Z,94335.34
2023-10-28T02:03:22.310Z,94322.13
2023-10-28T02:08:23.968Z,94326.72
2023-10-28T02:13:25.479Z,94336.47
2023-10-28T02:18:27.793Z,94339.19
2023-10-28T02:23:29.358Z,94349.75
2023-10-28T02:28:31.040Z,94350.41
2023-10-28T02:33:32.611Z,94342.31
2023-10-28T02:38:34.285Z,94347.34
2023-10-28T02:43:36.336Z,94345.38
2023-10-28T02:48:37.900Z,94357.06
2023-10-28T02:53:39.436Z,94357.56
2023-10-28T02:58:41.073Z,94356.81
2023-10-28T03:03:43.688Z,94352.19
2023-10-28T03:08:45.454Z,94362.78
2023-10-28T03:13:47.295Z,94371.13
2023-10-28T03:18:48.862Z,94372.63
2023-10-28T03:23:50.680Z,94377.28
2023-10-28T03:28:52.276Z,94388.75
2023-10-28T03:33:55.243Z,94394.31
2023-10-28T03:38:59.701Z,94382.88
2023-10-28T03:44:02.460Z,94378.19
2023-10-28T03:49:04.678Z,94375.88
2023-10-28T03:54:06.413Z,94386.38
2023-10-28T03:59:08.009Z,94391.06
2023-10-28T04:04:09.610Z,94404.28
2023-10-28T04:09:11.130Z,94390.22
2023-10-28T04:14:12.738Z,94403.78
2023-10-28T04:19:14.298Z,94407.38
2023-10-28T04:24:15.822Z,94411.22
2023-10-28T04:29:17.523Z,94407.38
2023-10-28T04:34:19.110Z,94416.31
2023-10-28T04:39:21.737Z,94428.84
2023-10-28T04:44:23.266Z,94436.41
2023-10-28T04:49:24.828Z,94429.03
2023-10-28T04:54:26.379Z,94425.78
2023-10-28T04:59:30.761Z,94433.19
2023-10-28T05:04:32.360Z,94432.44
2023-10-28T05:09:34.089Z,94440.97
2023-10-28T05:14:35.621Z,94444.81
2023-10-28T05:19:38.170Z,94460.78
2023-10-28T05:24:39.888Z,94461.47
2023-10-28T05:29:41.430Z,94463.44
2023-10-28T05:34:43.034Z,94462.31
2023-10-28T05:39:44.973Z,94467.88
2023-10-28T05:44:46.636Z,94475.69
2023-10-28T05:49:48.433Z,94479.47
2023-10-28T05:54:50.206Z,94488.41
2023-10-28T05:59:51.774Z,94484.06
2023-10-28T06:04:53.818Z,94489.47
2023-10-28T06:09:55.443Z,94492.91
2023-10-28T06:14:56.986Z,94497.19
2023-10-28T06:20:00.230Z,94505.72
2023-10-28T06:25:01.962Z,94512.31
2023-10-28T06:30:03.985Z,94522.44
2023-10-28T06:35:06.310Z,94519.38
2023-10-28T06:40:10.814Z,94518.94
2023-10-28T06:45:12.505Z,94521.22
2023-10-28T06:50:14.165Z,94517.66
2023-10-28T06:55:17.328Z,94511.34
2023-10-28T07:00:18.987Z,94519.47
2023-10-28T07:05:20.824Z,94528.38
2023-10-28T07:10:23.081Z,94529.03
2023-10-28T07:15:26.012Z,94532.13
2023-10-28T07:20:33.844Z,94535.13
2023-10-28T07:25:35.869Z,94542.06
2023-10-28T07:30:49.653Z,94540.38
2023-10-28T07:35:51.782Z,94553.88
2023-10-28T07:40:56.205Z,94569.09
2023-10-28T07:45:58.327Z,94574.81
2023-10-28T07:51:00.847Z,94579.78
2023-10-28T07:56:02.979Z,94579.22
2023-10-28T08:01:17.240Z,94586.94
2023-10-28T08:06:35.056Z,94594.97
2023-10-28T08:11:40.723Z,94599.78
2023-10-28T08:16:47.670Z,94605.34
2023-10-28T08:21:52.309Z,94613.78
2023-10-28T08:27:09.807Z,94602.28
2023-10-28T08:32:12.240Z,94611.66
2023-10-28T08:37:14.586Z,94628.28
2023-10-28T08:42:20.636Z,94631.19
2023-10-28T08:48:02.089Z,94641.91
2023-10-28T08:53:24.751Z,94654.28
2023-10-28T08:59:12.879Z,94652.53
2023-10-28T09:04:29.799Z,94667.50
2023-10-28T09:09:32.996Z,94647.06
2023-10-28T09:14:47.576Z,94659.56
2023-10-28T09:20:13.833Z,94648.31
2023-10-28T09:25:31.890Z,94642.50
2023-10-28T09:31:52.844Z,94651.25
2023-10-28T09:42:05.603Z,94657.50
2023-10-28T09:47:54.148Z,94664.66
2023-10-28T09:53:02.072Z,94656.69
2023-10-28T09:58:35.005Z,94653.66
2023-10-28T10:04:20.333Z,94655.09
2023-10-28T10:09:23.812Z,94645.38
2023-10-28T10:14:34.650Z,94651.34
2023-10-28T10:19:48.141Z,94644.31
2023-10-28T10:25:03.128Z,94644.31
2023-10-28T10:30:10.483Z,94653.78
2023-10-28T10:35:14.485Z,94642.81
2023-10-28T10:40:23.522Z,94650.81
2023-10-28T10:45:27.625Z,94656.94
2023-10-28T10:50:36.686Z,94643.34
2023-10-28T10:55:42.600Z,94636.75
2023-10-28T11:00:55.678Z,94638.41
2023-10-28T11:05:57.967Z,94637.84
2023-10-28T11:11:00.223Z,94630.25
2023-10-28T11:16:22.873Z,94639.59
2023-10-28T11:21:27.618Z,94654.63
2023-10-28T11:26:30.800Z,94632.63
2023-10-28T11:31:37.351Z,94634.25
2023-10-28T11:36:38.985Z,94652.50
2023-10-28T11:41:45.124Z,94640.69
2023-10-28T11:46:48.009Z,94655.19
2023-10-28T11:51:49.653Z,94644.78
2023-10-28T11:56:51.247Z,94650.72
2023-10-28T12:01:56.187Z,94655.72
2023-10-28T12:06:59.155Z,94644.84
2023-10-28T12:12:00.948Z,94635.72
2023-10-28T12:17:02.818Z,94644.34
2023-10-28T12:22:04.438Z,94638.47
2023-10-28T12:27:06.055Z,94625.03
2023-10-28T12:32:07.666Z,94628.75
2023-10-28T12:37:10.129Z,94624.19
2023-10-28T12:42:11.721Z,94626.22
2023-10-28T12:47:13.494Z,94623.47
2023-10-28T12:52:15.040Z,94630.53
2023-10-28T12:57:16.566Z,94626.28
2023-10-28T13:02:18.754Z,94618.75
2023-10-28T13:07:23.045Z,94595.53
2023-10-28T13:12:24.624Z,94595.69
2023-10-28T13:17:26.221Z,94602.72
2023-10-28T13:22:27.818Z,94600.16
2023-10-28T13:27:30.456Z,94598.19
2023-10-28T13:32:40.758Z,94591.16
2023-10-28T13:37:51.268Z,94607.69
2023-10-28T13:42:53.422Z,94608.75
2023-10-28T13:47:55.593Z,94601.59
2023-10-28T13:52:57.342Z,94595.31
2023-10-28T13:57:59.133Z,94590.88
2023-10-28T14:03:02.972Z,94595.16
2023-10-28T14:08:05.170Z,94586.47
2023-10-28T14:13:06.782Z,94580.97
2023-10-28T14:18:09.809Z,94586.47
2023-10-28T14:23:12.080Z,94579.56
2023-10-28T14:28:13.677Z,94560.44
2023-10-28T14:33:16.397Z,94555.81
2023-10-28T14:38:18.253Z,94556.59
2023-10-28T14:43:19.925Z,94576.63
2023-10-28T14:48:25.136Z,94579.97
2023-10-28T14:53:26.941Z,94583.34
2023-10-28T14:58:33.026Z,94607.78
2023-10-28T15:03:35.303Z,94628.41
2023-10-28T15:08:37.142Z,94639.38
2023-10-28T15:13:39.309Z,94666.50
2023-10-28T15:18:42.242Z,94672.63
2023-10-28T15:23:44.471Z,94674.94
2023-10-28T15:28:48.185Z,94673.66
2023-10-28T15:33:50.190Z,94672.34
2023-10-28T15:38:53.056Z,94670.84
2023-10-28T15:43:54.656Z,94668.25
2023-10-28T15:48:56.301Z,94669.59
2023-10-28T15:53:57.925Z,94672.00
2023-10-28T15:58:59.479Z,94679.25
2023-10-28T16:04:01.096Z,94667.50
2023-10-28T16:09:03.861Z,94671.44
2023-10-28T16:14:05.524Z,94685.19
2023-10-28T16:19:08.199Z,94673.00
2023-10-28T16:24:10.395Z,94664.75
2023-10-28T16:29:11.980Z,94670.66
2023-10-28T16:34:13.555Z,94671.88
2023-10-28T16:39:15.245Z,94674.75
2023-10-28T16:44:16.955Z,94685.81
2023-10-28T16:49:18.518Z,94686.84
2023-10-28T16:54:20.074Z,94698.47
2023-10-28T16:59:21.635Z,94700.69
2023-10-28T17:04:23.231Z,94709.91
2023-10-28T17:09:26.035Z,94708.81
2023-10-28T17:14:27.726Z,94709.66
2023-10-28T17:19:29.711Z,94704.72
2023-10-28T17:24:31.753Z,94708.81
2023-10-28T17:29:33.410Z,94706.28
2023-10-28T17:34:35.879Z,94713.81
2023-10-28T17:39:38.275Z,94705.25
2023-10-28T17:44:39.983Z,94706.47
2023-10-28T17:49:42.036Z,94702.63
2023-10-28T17:54:43.661Z,94701.53
2023-10-28T17:59:45.315Z,94710.19
2023-10-28T18:04:47.139Z,94701.66
2023-10-28T18:09:49.088Z,94698.91
2023-10-28T18:14:51.091Z,94686.81
2023-10-28T18:19:52.800Z,94690.09
2023-10-28T18:24:55.265Z,94689.44
2023-10-28T18:29:57.377Z,94691.06
2023-10-28T18:34:59.422Z,94692.25
2023-10-28T18:40:01.059Z,94694.69
2023-10-28T18:45:03.027Z,94693.91
2023-10-28T18:50:04.916Z,94690.06
2023-10-28T18:55:08.123Z,94702.34
2023-10-28T19:00:10.264Z,94696.19
2023-10-28T19:05:12.220Z,94707.25
2023-10-28T19:10:13.952Z,94699.13
2023-10-28T19:15:15.697Z,94700.72
2023-10-28T19:20:17.365Z,94716.41
2023-10-28T19:25:19.149Z,94730.91
2023-10-28T19:30:20.821Z,94738.38
2023-10-28T19:35:22.724Z,94743.09
2023-10-28T19:40:24.741Z,94745.41
2023-10-28T19:45:27.438Z,94736.00
2023-10-28T19:50:29.050Z,94725.41
2023-10-28T19:55:30.844Z,94721.16
2023-10-28T20:00:33.370Z,94733.75
2023-10-28T20:05:35.380Z,94743.16
2023-10-28T20:10:37.811Z,94741.63
2023-10-28T20:15:39.714Z,94741.97
2023-10-28T20:20:41.686Z,94743.16
2023-10-28T20:25:43.309Z,94734.63
2023-10-28T20:30:44.900Z,94753.03
2023-10-28T20:35:46.616Z,94751.91
2023-10-28T20:40:48.322Z,94747.22
2023-10-28T20:45:51.202Z,94753.13
2023-10-28T20:50:52.862Z,94750.38
2023-10-28T20:55:54.628Z,94753.13
2023-10-28T21:00:56.640Z,94754.75
2023-10-28T21:05:58.247Z,94753.22
2023-10-28T21:11:00.616Z,94753.66
2023-10-28T21:16:02.228Z,94747.41
2023-10-28T21:21:04.249Z,94741.91
2023-10-28T21:26:05.937Z,94747.41
2023-10-28T21:31:07.846Z,94747.81
2023-10-28T21:36:10.220Z,94748.69
2023-10-28T21:41:13.674Z,94753.41
2023-10-28T21:46:17.511Z,94740.88
2023-10-28T21:51:19.316Z,94736.19
2023-10-28T21:56:21.138Z,94749.13
2023-10-28T22:01:23.769Z,94756.22
2023-10-28T22:06:26.324Z,94764.47
2023-10-28T22:11:28.381Z,94756.69
2023-10-28T22:16:30.153Z,94749.75
2023-10-28T22:21:31.736Z,94745.53
2023-10-28T22:26:33.353Z,94736.72
2023-10-28T22:31:35.302Z,94740.50
2023-10-28T22:36:36.864Z,94740.69
2023-10-28T22:41:38.462Z,94745.50
2023-10-28T22:46:41.373Z,94746.31
2023-10-28T22:51:43.052Z,94746.00
2023-10-28T22:56:44.693Z,94744.03
2023-10-28T23:01:46.291Z,94748.31
2023-10-28T23:06:48.219Z,94741.28
2023-10-28T23:11:49.861Z,94748.75
2023-10-28T23:16:52.525Z,94742.47
2023-10-28T23:21:54.318Z,94722.53
2023-10-28T23:26:55.938Z,94721.78
2023-10-28T23:31:57.588Z,94727.25
2023-10-28T23:36:59.179Z,94721.00
2023-10-28T23:42:00.909Z,94714.75
2023-10-28T23:47:02.616Z,94708.50
2023-10-28T23:52:04.391Z,94700.72
2023-10-28T23:57:05.982Z,94680.44
